Alcove, New York
Current Conditions -  °F | °C
As of 9:51 PM on Monday 22 Dec 2014 (Local Time) from KALB Reporting Station
Overcast Overcast  
Wind Chill: 34°   Ceiling: 2100
Heat Index: 34°   Visibility: 10mi
Dew Point: 27°   Wind: 0mph
Humidity: 75%   Direction: NA
Pressure: 30.24"   Gusts: NA
Location:  42.47°N, 73.93°W
Report Text: KALB 230251Z 00000KT 10SM BKN021 OVC040 01/M03 A3024 RMK AO2 SLP245 BKN V OVC T00111028 58010
Loading
Personal Weather Stations






























Interactive Weather Map New forecast layout! Learn more

10-Day Weather Forecast

Advertisements
Track Severe Weather on mobile